sensor_id;sensor_type;location;lat;lon;timestamp;pressure;altitude;pressure_sealevel;temperature;humidity
29825;BME280;16713;52.916;12.834;2022-09-11T00:01:40;100744.09;;;14.62;83.33
29825;BME280;16713;52.916;12.834;2022-09-11T00:04:07;100742.38;;;14.47;84.29
29825;BME280;16713;52.916;12.834;2022-09-11T00:06:34;100742.91;;;14.59;82.72
29825;BME280;16713;52.916;12.834;2022-09-11T00:09:02;100739.69;;;14.57;83.23
29825;BME280;16713;52.916;12.834;2022-09-11T00:11:29;100736.81;;;14.43;83.15
29825;BME280;16713;52.916;12.834;2022-09-11T00:13:56;100736.78;;;14.40;82.98
29825;BME280;16713;52.916;12.834;2022-09-11T00:16:33;100742.25;;;14.36;84.44
29825;BME280;16713;52.916;12.834;2022-09-11T00:19:02;100737.53;;;14.37;83.35
29825;BME280;16713;52.916;12.834;2022-09-11T00:21:29;100738.00;;;14.46;84.67
29825;BME280;16713;52.916;12.834;2022-09-11T00:23:55;100732.00;;;14.37;83.83
29825;BME280;16713;52.916;12.834;2022-09-11T00:26:22;100742.09;;;14.59;82.57
29825;BME280;16713;52.916;12.834;2022-09-11T00:28:49;100740.81;;;14.49;83.32
29825;BME280;16713;52.916;12.834;2022-09-11T00:31:19;100732.34;;;14.32;84.24
29825;BME280;16713;52.916;12.834;2022-09-11T00:33:47;100737.31;;;14.56;82.47
29825;BME280;16713;52.916;12.834;2022-09-11T00:36:16;100727.59;;;14.29;83.63
29825;BME280;16713;52.916;12.834;2022-09-11T00:38:43;100739.50;;;14.36;83.68
29825;BME280;16713;52.916;12.834;2022-09-11T00:41:21;100734.59;;;14.19;84.96
29825;BME280;16713;52.916;12.834;2022-09-11T00:43:53;100735.53;;;14.34;84.24
29825;BME280;16713;52.916;12.834;2022-09-11T00:46:21;100741.06;;;14.34;84.28
29825;BME280;16713;52.916;12.834;2022-09-11T00:48:48;100741.91;;;14.41;82.93
29825;BME280;16713;52.916;12.834;2022-09-11T00:51:22;100744.16;;;14.69;81.73
29825;BME280;16713;52.916;12.834;2022-09-11T00:53:50;100739.44;;;14.69;82.19
29825;BME280;16713;52.916;12.834;2022-09-11T00:56:17;100743.84;;;14.78;81.33
29825;BME280;16713;52.916;12.834;2022-09-11T00:58:44;100746.28;;;14.86;81.28
29825;BME280;16713;52.916;12.834;2022-09-11T01:01:11;100752.66;;;14.94;81.00
29825;BME280;16713;52.916;12.834;2022-09-11T01:03:39;100755.06;;;15.02;80.23
29825;BME280;16713;52.916;12.834;2022-09-11T01:06:06;100745.66;;;15.07;79.97
29825;BME280;16713;52.916;12.834;2022-09-11T01:08:33;100742.50;;;15.12;80.58
29825;BME280;16713;52.916;12.834;2022-09-11T01:16:43;100748.81;;;15.09;80.20
29825;BME280;16713;52.916;12.834;2022-09-11T01:30:10;100764.19;;;15.06;80.77
29825;BME280;16713;52.916;12.834;2022-09-11T01:35:17;100771.31;;;15.07;81.08
29825;BME280;16713;52.916;12.834;2022-09-11T01:37:56;100774.75;;;14.94;81.60
29825;BME280;16713;52.916;12.834;2022-09-11T01:40:26;100771.47;;;14.81;81.65
29825;BME280;16713;52.916;12.834;2022-09-11T01:42:54;100775.13;;;14.89;81.13
29825;BME280;16713;52.916;12.834;2022-09-11T01:45:22;100774.63;;;14.76;82.56
29825;BME280;16713;52.916;12.834;2022-09-11T01:47:50;100772.59;;;14.73;82.23
29825;BME280;16713;52.916;12.834;2022-09-11T01:50:18;100779.75;;;14.81;82.10
29825;BME280;16713;52.916;12.834;2022-09-11T01:52:47;100768.28;;;14.76;82.67
29825;BME280;16713;52.916;12.834;2022-09-11T01:55:16;100773.03;;;14.79;82.43
29825;BME280;16713;52.916;12.834;2022-09-11T01:57:46;100775.00;;;14.78;82.62
29825;BME280;16713;52.916;12.834;2022-09-11T02:00:13;100776.53;;;14.72;82.93
29825;BME280;16713;52.916;12.834;2022-09-11T02:02:48;100778.88;;;14.70;83.64
29825;BME280;16713;52.916;12.834;2022-09-11T02:05:18;100776.03;;;14.59;82.91
29825;BME280;16713;52.916;12.834;2022-09-11T02:07:51;100770.16;;;14.64;83.28
29825;BME280;16713;52.916;12.834;2022-09-11T02:10:21;100773.50;;;14.44;85.05
29825;BME280;16713;52.916;12.834;2022-09-11T02:12:51;100779.16;;;14.58;83.89
29825;BME280;16713;52.916;12.834;2022-09-11T02:15:20;100773.13;;;14.49;84.01
29825;BME280;16713;52.916;12.834;2022-09-11T02:17:55;100771.84;;;14.39;84.46
29825;BME280;16713;52.916;12.834;2022-09-11T02:20:24;100775.03;;;14.41;83.24
29825;BME280;16713;52.916;12.834;2022-09-11T02:22:51;100771.19;;;14.53;82.38
29825;BME280;16713;52.916;12.834;2022-09-11T02:25:18;100776.34;;;14.54;82.43
29825;BME280;16713;52.916;12.834;2022-09-11T02:27:44;100778.25;;;14.47;83.04
29825;BME280;16713;52.916;12.834;2022-09-11T02:30:11;100793.19;;;14.46;82.31
29825;BME280;16713;52.916;12.834;2022-09-11T02:32:38;100788.75;;;14.34;83.42
29825;BME280;16713;52.916;12.834;2022-09-11T02:35:06;100790.44;;;14.46;82.91
29825;BME280;16713;52.916;12.834;2022-09-11T02:40:10;100794.28;;;14.38;84.42
29825;BME280;16713;52.916;12.834;2022-09-11T02:42:57;100793.72;;;14.22;84.46
29825;BME280;16713;52.916;12.834;2022-09-11T02:55:48;100793.97;;;14.43;84.43
29825;BME280;16713;52.916;12.834;2022-09-11T02:58:21;100794.28;;;14.38;85.34
29825;BME280;16713;52.916;12.834;2022-09-11T03:00:52;100800.41;;;14.57;84.18
29825;BME280;16713;52.916;12.834;2022-09-11T03:03:21;100792.69;;;14.70;83.76
29825;BME280;16713;52.916;12.834;2022-09-11T03:05:47;100798.19;;;14.70;84.27
29825;BME280;16713;52.916;12.834;2022-09-11T03:08:14;100801.81;;;14.74;84.22
29825;BME280;16713;52.916;12.834;2022-09-11T03:10:42;100795.13;;;14.79;84.19
29825;BME280;16713;52.916;12.834;2022-09-11T03:13:12;100794.78;;;14.84;84.06
29825;BME280;16713;52.916;12.834;2022-09-11T03:15:40;100805.88;;;14.87;83.20
29825;BME280;16713;52.916;12.834;2022-09-11T03:18:09;100794.09;;;14.94;83.92
29825;BME280;16713;52.916;12.834;2022-09-11T03:20:36;100798.75;;;14.86;83.91
29825;BME280;16713;52.916;12.834;2022-09-11T03:23:03;100809.13;;;15.00;83.52
29825;BME280;16713;52.916;12.834;2022-09-11T03:25:35;100808.34;;;14.99;83.35
29825;BME280;16713;52.916;12.834;2022-09-11T03:28:01;100805.91;;;14.91;84.59
29825;BME280;16713;52.916;12.834;2022-09-11T03:30:29;100811.72;;;14.79;83.95
29825;BME280;16713;52.916;12.834;2022-09-11T03:32:56;100808.47;;;14.69;84.00
29825;BME280;16713;52.916;12.834;2022-09-11T03:35:23;100806.47;;;14.66;84.97
29825;BME280;16713;52.916;12.834;2022-09-11T03:37:50;100813.97;;;14.66;85.11
29825;BME280;16713;52.916;12.834;2022-09-11T03:40:16;100816.63;;;14.59;85.19
29825;BME280;16713;52.916;12.834;2022-09-11T03:42:45;100816.19;;;14.57;85.61
29825;BME280;16713;52.916;12.834;2022-09-11T03:45:11;100816.28;;;14.64;85.58
29825;BME280;16713;52.916;12.834;2022-09-11T03:47:39;100815.09;;;14.61;85.45
29825;BME280;16713;52.916;12.834;2022-09-11T03:50:08;100823.66;;;14.53;85.69
29825;BME280;16713;52.916;12.834;2022-09-11T03:52:35;100827.22;;;14.53;85.77
29825;BME280;16713;52.916;12.834;2022-09-11T03:55:02;100822.88;;;14.56;86.52
29825;BME280;16713;52.916;12.834;2022-09-11T03:57:31;100816.09;;;14.46;86.79
29825;BME280;16713;52.916;12.834;2022-09-11T03:59:58;100817.97;;;14.39;85.73
29825;BME280;16713;52.916;12.834;2022-09-11T04:02:24;100825.47;;;14.38;85.83
29825;BME280;16713;52.916;12.834;2022-09-11T04:04:50;100820.78;;;14.42;86.04
29825;BME280;16713;52.916;12.834;2022-09-11T04:07:17;100816.38;;;14.38;86.75
29825;BME280;16713;52.916;12.834;2022-09-11T04:09:43;100817.50;;;14.33;87.02
29825;BME280;16713;52.916;12.834;2022-09-11T04:12:09;100812.84;;;14.37;85.83
29825;BME280;16713;52.916;12.834;2022-09-11T04:14:36;100823.91;;;14.41;85.73
29825;BME280;16713;52.916;12.834;2022-09-11T04:17:02;100822.75;;;14.42;85.58
29825;BME280;16713;52.916;12.834;2022-09-11T04:19:29;100825.88;;;14.40;85.29
29825;BME280;16713;52.916;12.834;2022-09-11T04:21:55;100823.06;;;14.37;86.56
29825;BME280;16713;52.916;12.834;2022-09-11T04:24:21;100821.91;;;14.38;86.96
29825;BME280;16713;52.916;12.834;2022-09-11T04:26:48;100834.88;;;14.34;87.34
29825;BME280;16713;52.916;12.834;2022-09-11T04:29:15;100838.06;;;14.39;86.60
29825;BME280;16713;52.916;12.834;2022-09-11T04:31:43;100844.34;;;14.36;86.28
29825;BME280;16713;52.916;12.834;2022-09-11T04:34:09;100846.78;;;14.41;85.92
29825;BME280;16713;52.916;12.834;2022-09-11T04:36:36;100850.19;;;14.61;85.84
29825;BME280;16713;52.916;12.834;2022-09-11T04:39:02;100842.22;;;14.56;85.37
29825;BME280;16713;52.916;12.834;2022-09-11T04:41:29;100850.41;;;14.49;85.51
29825;BME280;16713;52.916;12.834;2022-09-11T04:43:56;100851.66;;;14.55;86.21
29825;BME280;16713;52.916;12.834;2022-09-11T04:46:29;100854.59;;;14.69;85.66
29825;BME280;16713;52.916;12.834;2022-09-11T04:48:56;100848.66;;;14.67;86.14
29825;BME280;16713;52.916;12.834;2022-09-11T04:51:28;100854.31;;;14.78;86.00
29825;BME280;16713;52.916;12.834;2022-09-11T04:53:55;100855.13;;;14.82;85.80
29825;BME280;16713;52.916;12.834;2022-09-11T04:56:29;100851.28;;;14.93;85.16
29825;BME280;16713;52.916;12.834;2022-09-11T04:58:56;100845.91;;;15.07;85.21
29825;BME280;16713;52.916;12.834;2022-09-11T05:01:24;100847.50;;;15.12;84.77
29825;BME280;16713;52.916;12.834;2022-09-11T05:03:50;100854.69;;;15.20;84.55
29825;BME280;16713;52.916;12.834;2022-09-11T05:06:17;100857.81;;;15.18;84.50
29825;BME280;16713;52.916;12.834;2022-09-11T05:08:44;100866.19;;;15.25;84.46
29825;BME280;16713;52.916;12.834;2022-09-11T05:11:12;100860.63;;;15.22;84.41
29825;BME280;16713;52.916;12.834;2022-09-11T05:13:38;100870.53;;;15.26;83.01
29825;BME280;16713;52.916;12.834;2022-09-11T05:16:06;100861.13;;;15.31;83.51
29825;BME280;16713;52.916;12.834;2022-09-11T05:18:34;100876.41;;;15.21;83.85
29825;BME280;16713;52.916;12.834;2022-09-11T05:21:01;100874.91;;;15.27;83.24
29825;BME280;16713;52.916;12.834;2022-09-11T05:23:28;100869.72;;;15.22;82.97
29825;BME280;16713;52.916;12.834;2022-09-11T05:25:55;100876.00;;;15.19;83.75
29825;BME280;16713;52.916;12.834;2022-09-11T05:28:23;100879.94;;;15.18;83.92
29825;BME280;16713;52.916;12.834;2022-09-11T05:30:49;100884.16;;;15.05;83.97
29825;BME280;16713;52.916;12.834;2022-09-11T05:33:16;100886.09;;;15.01;84.45
29825;BME280;16713;52.916;12.834;2022-09-11T05:35:42;100893.91;;;14.96;84.87
29825;BME280;16713;52.916;12.834;2022-09-11T05:38:09;100896.69;;;14.96;84.54
29825;BME280;16713;52.916;12.834;2022-09-11T05:40:42;100894.59;;;14.82;84.95
29825;BME280;16713;52.916;12.834;2022-09-11T05:43:09;100899.44;;;14.92;85.54
29825;BME280;16713;52.916;12.834;2022-09-11T05:45:35;100906.88;;;14.88;86.52
29825;BME280;16713;52.916;12.834;2022-09-11T05:48:02;100912.78;;;14.87;85.37
29825;BME280;16713;52.916;12.834;2022-09-11T05:50:29;100908.06;;;14.87;85.00
29825;BME280;16713;52.916;12.834;2022-09-11T05:52:57;100917.31;;;14.68;86.59
29825;BME280;16713;52.916;12.834;2022-09-11T05:55:24;100915.34;;;14.69;86.18
29825;BME280;16713;52.916;12.834;2022-09-11T05:57:50;100920.53;;;14.74;86.02
29825;BME280;16713;52.916;12.834;2022-09-11T06:00:17;100921.34;;;14.78;86.26
29825;BME280;16713;52.916;12.834;2022-09-11T06:02:44;100912.31;;;14.78;85.64
29825;BME280;16713;52.916;12.834;2022-09-11T06:05:10;100913.88;;;14.79;86.72
29825;BME280;16713;52.916;12.834;2022-09-11T06:07:36;100903.47;;;14.65;86.13
29825;BME280;16713;52.916;12.834;2022-09-11T06:10:03;100915.81;;;14.75;86.62
29825;BME280;16713;52.916;12.834;2022-09-11T06:12:29;100915.84;;;14.78;86.89
29825;BME280;16713;52.916;12.834;2022-09-11T06:14:55;100920.50;;;14.70;86.98
29825;BME280;16713;52.916;12.834;2022-09-11T06:17:22;100926.88;;;14.75;86.71
29825;BME280;16713;52.916;12.834;2022-09-11T06:19:49;100923.63;;;14.69;86.76
29825;BME280;16713;52.916;12.834;2022-09-11T06:22:16;100933.16;;;14.75;87.70
29825;BME280;16713;52.916;12.834;2022-09-11T06:24:42;100929.06;;;14.62;87.17
29825;BME280;16713;52.916;12.834;2022-09-11T06:27:09;100936.50;;;14.58;87.50
29825;BME280;16713;52.916;12.834;2022-09-11T06:29:35;100945.66;;;14.65;88.03
29825;BME280;16713;52.916;12.834;2022-09-11T06:32:01;100942.84;;;14.58;88.36
29825;BME280;16713;52.916;12.834;2022-09-11T06:34:28;100942.47;;;14.60;88.59
29825;BME280;16713;52.916;12.834;2022-09-11T06:36:56;100943.91;;;14.54;87.34
29825;BME280;16713;52.916;12.834;2022-09-11T06:39:23;100951.53;;;14.60;87.07
29825;BME280;16713;52.916;12.834;2022-09-11T06:41:49;100961.63;;;14.79;87.21
29825;BME280;16713;52.916;12.834;2022-09-11T06:44:15;100952.19;;;14.84;86.93
29825;BME280;16713;52.916;12.834;2022-09-11T06:46:42;100961.03;;;14.96;86.92
29825;BME280;16713;52.916;12.834;2022-09-11T06:49:09;100956.72;;;15.02;86.28
29825;BME280;16713;52.916;12.834;2022-09-11T06:51:35;100963.59;;;15.15;86.45
29825;BME280;16713;52.916;12.834;2022-09-11T06:54:02;100963.22;;;15.17;86.07
29825;BME280;16713;52.916;12.834;2022-09-11T06:56:29;100960.19;;;15.29;85.78
29825;BME280;16713;52.916;12.834;2022-09-11T06:58:57;100958.56;;;15.28;85.96
29825;BME280;16713;52.916;12.834;2022-09-11T07:01:24;100962.19;;;15.32;85.64
29825;BME280;16713;52.916;12.834;2022-09-11T07:03:51;100967.00;;;15.38;85.87
29825;BME280;16713;52.916;12.834;2022-09-11T07:06:27;100967.28;;;15.30;85.30
29825;BME280;16713;52.916;12.834;2022-09-11T07:08:56;100960.59;;;15.31;85.58
29825;BME280;16713;52.916;12.834;2022-09-11T07:11:29;100963.03;;;15.39;84.96
29825;BME280;16713;52.916;12.834;2022-09-11T07:13:57;100967.56;;;15.54;84.96
29825;BME280;16713;52.916;12.834;2022-09-11T07:16:24;100967.84;;;15.46;85.00
29825;BME280;16713;52.916;12.834;2022-09-11T07:18:51;100968.22;;;15.44;84.95
29825;BME280;16713;52.916;12.834;2022-09-11T07:21:18;100967.00;;;15.38;84.97
29825;BME280;16713;52.916;12.834;2022-09-11T07:23:47;100970.91;;;15.37;85.79
29825;BME280;16713;52.916;12.834;2022-09-11T07:26:14;100981.19;;;15.37;85.09
29825;BME280;16713;52.916;12.834;2022-09-11T07:28:41;100972.94;;;15.44;85.80
29825;BME280;16713;52.916;12.834;2022-09-11T07:31:12;100972.91;;;15.37;84.60
29825;BME280;16713;52.916;12.834;2022-09-11T07:33:45;100964.56;;;15.33;85.80
29825;BME280;16713;52.916;12.834;2022-09-11T07:36:14;100977.25;;;15.38;84.92
29825;BME280;16713;52.916;12.834;2022-09-11T07:38:42;100980.38;;;15.36;85.53
29825;BME280;16713;52.916;12.834;2022-09-11T07:41:09;100975.88;;;15.18;86.32
29825;BME280;16713;52.916;12.834;2022-09-11T07:43:36;100985.28;;;15.13;86.46
29825;BME280;16713;52.916;12.834;2022-09-11T07:46:03;100979.31;;;15.08;86.95
29825;BME280;16713;52.916;12.834;2022-09-11T07:48:30;100981.72;;;15.13;86.77
29825;BME280;16713;52.916;12.834;2022-09-11T07:50:58;100980.09;;;15.08;87.09
29825;BME280;16713;52.916;12.834;2022-09-11T07:53:27;100980.53;;;15.14;87.12
29825;BME280;16713;52.916;12.834;2022-09-11T07:55:53;100989.16;;;15.09;86.73
29825;BME280;16713;52.916;12.834;2022-09-11T07:58:21;100982.63;;;15.24;85.73
29825;BME280;16713;52.916;12.834;2022-09-11T08:00:47;100988.47;;;15.15;86.77
29825;BME280;16713;52.916;12.834;2022-09-11T08:03:14;100996.94;;;15.33;86.44
29825;BME280;16713;52.916;12.834;2022-09-11T08:05:40;100998.88;;;15.29;86.15
29825;BME280;16713;52.916;12.834;2022-09-11T08:08:06;101000.91;;;15.35;86.29
29825;BME280;16713;52.916;12.834;2022-09-11T08:10:34;101000.53;;;15.37;85.90
29825;BME280;16713;52.916;12.834;2022-09-11T08:13:01;101005.34;;;15.43;86.23
29825;BME280;16713;52.916;12.834;2022-09-11T08:15:34;101000.91;;;15.35;85.32
29825;BME280;16713;52.916;12.834;2022-09-11T08:18:01;101010.59;;;15.19;86.54
29825;BME280;16713;52.916;12.834;2022-09-11T08:20:27;101015.94;;;15.38;86.64
29825;BME280;16713;52.916;12.834;2022-09-11T08:22:54;101008.78;;;15.33;86.54
29825;BME280;16713;52.916;12.834;2022-09-11T08:25:20;101004.41;;;15.29;87.34
29825;BME280;16713;52.916;12.834;2022-09-11T08:27:47;101017.53;;;15.39;86.68
29825;BME280;16713;52.916;12.834;2022-09-11T08:30:13;101019.84;;;15.33;86.62
29825;BME280;16713;52.916;12.834;2022-09-11T08:32:39;101016.34;;;15.40;86.42
29825;BME280;16713;52.916;12.834;2022-09-11T08:35:06;101020.75;;;15.44;86.42
29825;BME280;16713;52.916;12.834;2022-09-11T08:37:32;101025.75;;;15.68;85.51
29825;BME280;16713;52.916;12.834;2022-09-11T08:39:59;101027.06;;;15.81;84.52
29825;BME280;16713;52.916;12.834;2022-09-11T08:42:26;101025.56;;;15.91;84.18
29825;BME280;16713;52.916;12.834;2022-09-11T08:44:54;101033.88;;;15.94;83.60
29825;BME280;16713;52.916;12.834;2022-09-11T08:47:26;101027.16;;;15.95;83.08
29825;BME280;16713;52.916;12.834;2022-09-11T08:49:55;101032.44;;;16.14;83.66
29825;BME280;16713;52.916;12.834;2022-09-11T08:52:23;101041.59;;;16.19;83.26
29825;BME280;16713;52.916;12.834;2022-09-11T08:54:49;101045.53;;;16.21;82.46
29825;BME280;16713;52.916;12.834;2022-09-11T08:57:17;101045.53;;;16.21;82.03
29825;BME280;16713;52.916;12.834;2022-09-11T09:02:34;101046.16;;;16.48;81.63
29825;BME280;16713;52.916;12.834;2022-09-11T09:05:12;101044.56;;;16.43;81.29
29825;BME280;16713;52.916;12.834;2022-09-11T09:18:03;101038.59;;;16.41;80.80
29825;BME280;16713;52.916;12.834;2022-09-11T09:20:38;101047.31;;;16.40;79.85
29825;BME280;16713;52.916;12.834;2022-09-11T09:23:09;101050.94;;;16.51;80.14
29825;BME280;16713;52.916;12.834;2022-09-11T09:25:38;101052.38;;;16.34;80.32
29825;BME280;16713;52.916;12.834;2022-09-11T09:30:36;101053.94;;;16.32;80.77
29825;BME280;16713;52.916;12.834;2022-09-11T09:35:39;101051.56;;;16.30;80.58
29825;BME280;16713;52.916;12.834;2022-09-11T09:38:13;101057.47;;;16.32;81.22
29825;BME280;16713;52.916;12.834;2022-09-11T09:48:36;101054.53;;;16.58;80.03
29825;BME280;16713;52.916;12.834;2022-09-11T09:51:04;101054.56;;;16.65;79.92
29825;BME280;16713;52.916;12.834;2022-09-11T09:55:58;101062.06;;;16.61;79.07
29825;BME280;16713;52.916;12.834;2022-09-11T09:58:26;101065.25;;;16.63;79.12
29825;BME280;16713;52.916;12.834;2022-09-11T10:00:55;101065.25;;;16.63;79.17
29825;BME280;16713;52.916;12.834;2022-09-11T10:03:22;101058.97;;;16.73;78.00
29825;BME280;16713;52.916;12.834;2022-09-11T10:05:50;101059.53;;;16.39;78.85
29825;BME280;16713;52.916;12.834;2022-09-11T10:10:56;101070.06;;;16.73;76.29
29825;BME280;16713;52.916;12.834;2022-09-11T10:13:24;101070.41;;;16.68;76.70
29825;BME280;16713;52.916;12.834;2022-09-11T10:15:57;101064.78;;;16.58;76.75
29825;BME280;16713;52.916;12.834;2022-09-11T10:18:34;101074.31;;;16.60;76.66
29825;BME280;16713;52.916;12.834;2022-09-11T10:23:44;101071.84;;;16.45;77.33
29825;BME280;16713;52.916;12.834;2022-09-11T10:26:13;101076.25;;;16.56;76.57
29825;BME280;16713;52.916;12.834;2022-09-11T10:28:40;101086.31;;;16.85;77.16
29825;BME280;16713;52.916;12.834;2022-09-11T10:31:07;101084.44;;;17.00;75.78
29825;BME280;16713;52.916;12.834;2022-09-11T10:33:37;101082.88;;;17.09;74.69
29825;BME280;16713;52.916;12.834;2022-09-11T10:36:05;101079.75;;;17.14;74.38
29825;BME280;16713;52.916;12.834;2022-09-11T10:38:33;101088.91;;;17.22;74.54
29825;BME280;16713;52.916;12.834;2022-09-11T10:46:27;101088.19;;;17.39;73.69
29825;BME280;16713;52.916;12.834;2022-09-11T10:48:54;101094.91;;;17.41;72.92
29825;BME280;16713;52.916;12.834;2022-09-11T10:51:22;101094.91;;;17.38;73.51
29825;BME280;16713;52.916;12.834;2022-09-11T10:54:00;101088.59;;;17.48;72.04
29825;BME280;16713;52.916;12.834;2022-09-11T10:56:28;101090.59;;;17.55;71.60
29825;BME280;16713;52.916;12.834;2022-09-11T10:58:58;101100.50;;;17.52;70.64
29825;BME280;16713;52.916;12.834;2022-09-11T11:01:27;101110.41;;;17.53;71.39
29825;BME280;16713;52.916;12.834;2022-09-11T11:03:54;101110.38;;;17.42;70.66
29825;BME280;16713;52.916;12.834;2022-09-11T11:13:54;101133.16;;;17.01;75.39
29825;BME280;16713;52.916;12.834;2022-09-11T11:16:38;101144.34;;;17.22;77.38
29825;BME280;16713;52.916;12.834;2022-09-11T11:32:17;101142.69;;;17.10;80.57
29825;BME280;16713;52.916;12.834;2022-09-11T11:37:18;101137.44;;;16.91;82.44
29825;BME280;16713;52.916;12.834;2022-09-11T11:42:43;101134.09;;;16.65;83.92
29825;BME280;16713;52.916;12.834;2022-09-11T11:45:25;101136.56;;;16.77;85.39
29825;BME280;16713;52.916;12.834;2022-09-11T11:48:00;101125.88;;;16.79;85.70
29825;BME280;16713;52.916;12.834;2022-09-11T11:50:38;101132.22;;;16.79;85.52
29825;BME280;16713;52.916;12.834;2022-09-11T12:00:54;101109.16;;;16.65;85.66
29825;BME280;16713;52.916;12.834;2022-09-11T12:05:49;101108.03;;;16.73;85.16
29825;BME280;16713;52.916;12.834;2022-09-11T12:08:15;101104.84;;;16.71;86.00
29825;BME280;16713;52.916;12.834;2022-09-11T12:10:52;101100.09;;;16.71;85.97
29825;BME280;16713;52.916;12.834;2022-09-11T12:13:22;101098.91;;;16.69;83.61
29825;BME280;16713;52.916;12.834;2022-09-11T12:24:18;101092.25;;;16.84;83.80
29825;BME280;16713;52.916;12.834;2022-09-11T12:26:45;101086.38;;;16.92;83.99
29825;BME280;16713;52.916;12.834;2022-09-11T12:34:17;101099.09;;;17.00;82.46
29825;BME280;16713;52.916;12.834;2022-09-11T12:36:47;101095.53;;;17.03;81.46
29825;BME280;16713;52.916;12.834;2022-09-11T12:39:22;101092.41;;;17.12;81.88
29825;BME280;16713;52.916;12.834;2022-09-11T12:41:50;101090.03;;;17.14;80.14
29825;BME280;16713;52.916;12.834;2022-09-11T12:44:27;101084.13;;;17.19;80.93
29825;BME280;16713;52.916;12.834;2022-09-11T12:49:24;101087.75;;;17.26;80.11
29825;BME280;16713;52.916;12.834;2022-09-11T12:51:53;101092.50;;;17.29;80.68
29825;BME280;16713;52.916;12.834;2022-09-11T12:54:24;101087.75;;;17.30;80.77
29825;BME280;16713;52.916;12.834;2022-09-11T12:56:57;101092.50;;;17.36;79.22
29825;BME280;16713;52.916;12.834;2022-09-11T12:59:27;101099.66;;;17.37;78.75
29825;BME280;16713;52.916;12.834;2022-09-11T13:01:55;101096.91;;;17.37;79.89
29825;BME280;16713;52.916;12.834;2022-09-11T13:04:23;101100.03;;;17.32;79.66
29825;BME280;16713;52.916;12.834;2022-09-11T13:06:51;101104.03;;;17.38;81.17
29825;BME280;16713;52.916;12.834;2022-09-11T13:09:20;101094.91;;;17.38;80.19
29825;BME280;16713;52.916;12.834;2022-09-11T13:11:48;101101.22;;;17.35;81.29
29825;BME280;16713;52.916;12.834;2022-09-11T13:16:54;101105.94;;;17.17;79.31
29825;BME280;16713;52.916;12.834;2022-09-11T13:19:20;101098.75;;;17.09;80.35
29825;BME280;16713;52.916;12.834;2022-09-11T13:21:47;101103.47;;;17.05;80.35
29825;BME280;16713;52.916;12.834;2022-09-11T13:24:28;101116.88;;;16.96;81.21
29825;BME280;16713;52.916;12.834;2022-09-11T13:27:02;101113.25;;;16.85;81.68
29825;BME280;16713;52.916;12.834;2022-09-11T13:29:32;101110.06;;;16.83;82.14
29825;BME280;16713;52.916;12.834;2022-09-11T13:31:59;101100.56;;;16.84;82.88
29825;BME280;16713;52.916;12.834;2022-09-11T13:34:29;101106.53;;;16.86;82.97
29825;BME280;16713;52.916;12.834;2022-09-11T13:36:56;101098.59;;;16.84;83.39
29825;BME280;16713;52.916;12.834;2022-09-11T13:39:23;101101.31;;;16.77;84.33
29825;BME280;16713;52.916;12.834;2022-09-11T13:41:53;101098.59;;;16.81;83.42
29825;BME280;16713;52.916;12.834;2022-09-11T13:46:49;101084.66;;;16.67;84.67
29825;BME280;16713;52.916;12.834;2022-09-11T13:51:43;101087.06;;;16.72;85.40
29825;BME280;16713;52.916;12.834;2022-09-11T13:54:14;101080.31;;;16.69;85.24
29825;BME280;16713;52.916;12.834;2022-09-11T14:02:02;101071.59;;;16.64;87.71
29825;BME280;16713;52.916;12.834;2022-09-11T14:04:30;101072.84;;;16.77;87.16
29825;BME280;16713;52.916;12.834;2022-09-11T14:06:58;101067.16;;;16.52;87.72
29825;BME280;16713;52.916;12.834;2022-09-11T14:09:24;101071.13;;;16.58;87.58
29825;BME280;16713;52.916;12.834;2022-09-11T14:11:51;101072.69;;;16.52;88.14
29825;BME280;16713;52.916;12.834;2022-09-11T14:14:24;101070.75;;;16.60;88.79
29825;BME280;16713;52.916;12.834;2022-09-11T14:16:53;101070.81;;;16.67;87.10
29825;BME280;16713;52.916;12.834;2022-09-11T14:19:21;101072.00;;;16.73;87.85
29825;BME280;16713;52.916;12.834;2022-09-11T14:21:49;101073.25;;;16.82;87.32
29825;BME280;16713;52.916;12.834;2022-09-11T14:27:00;101067.41;;;16.94;86.44
29825;BME280;16713;52.916;12.834;2022-09-11T14:29:28;101068.16;;;16.88;87.18
29825;BME280;16713;52.916;12.834;2022-09-11T14:34:41;101062.25;;;16.93;86.61
29825;BME280;16713;52.916;12.834;2022-09-11T14:37:10;101066.59;;;16.94;86.71
29825;BME280;16713;52.916;12.834;2022-09-11T14:42:07;101058.66;;;16.89;86.99
29825;BME280;16713;52.916;12.834;2022-09-11T14:44:34;101051.16;;;17.00;86.60
29825;BME280;16713;52.916;12.834;2022-09-11T14:47:02;101057.09;;;16.98;87.39
29825;BME280;16713;52.916;12.834;2022-09-11T14:49:29;101049.59;;;16.99;86.94
29825;BME280;16713;52.916;12.834;2022-09-11T14:51:59;101050.81;;;17.08;85.68
29825;BME280;16713;52.916;12.834;2022-09-11T14:54:26;101052.75;;;16.97;85.62
29825;BME280;16713;52.916;12.834;2022-09-11T14:56:57;101043.22;;;16.91;86.48
29825;BME280;16713;52.916;12.834;2022-09-11T14:59:24;101053.16;;;17.03;85.86
29825;BME280;16713;52.916;12.834;2022-09-11T15:01:50;101052.75;;;17.04;86.04
29825;BME280;16713;52.916;12.834;2022-09-11T15:04:19;101055.53;;;17.01;85.67
29825;BME280;16713;52.916;12.834;2022-09-11T15:06:50;101047.63;;;16.99;85.68
29825;BME280;16713;52.916;12.834;2022-09-11T15:09:16;101041.69;;;17.04;86.48
29825;BME280;16713;52.916;12.834;2022-09-11T15:11:43;101050.69;;;16.84;86.53